sensor_id;sensor_type;location;lat;lon;timestamp;P1;durP1;ratioP1;P2;durP2;ratioP2
47483;SDS011;54076;50.322;18.650;2023-11-19T00:01:00;19.70;;;8.50;;
47483;SDS011;54076;50.322;18.650;2023-11-19T00:06:01;18.00;;;8.00;;
47483;SDS011;54076;50.322;18.650;2023-11-19T00:11:02;18.30;;;8.40;;
47483;SDS011;54076;50.322;18.650;2023-11-19T00:16:04;40.30;;;14.80;;
47483;SDS011;54076;50.322;18.650;2023-11-19T00:21:05;30.50;;;12.50;;
47483;SDS011;54076;50.322;18.650;2023-11-19T00:26:08;32.00;;;12.50;;
47483;SDS011;54076;50.322;18.650;2023-11-19T00:31:09;35.80;;;13.30;;
47483;SDS011;54076;50.322;18.650;2023-11-19T00:36:10;42.40;;;15.50;;
47483;SDS011;54076;50.322;18.650;2023-11-19T00:41:12;30.60;;;12.30;;
47483;SDS011;54076;50.322;18.650;2023-11-19T00:46:13;32.20;;;10.90;;
47483;SDS011;54076;50.322;18.650;2023-11-19T00:51:14;24.90;;;9.90;;
47483;SDS011;54076;50.322;18.650;2023-11-19T00:56:15;28.20;;;12.60;;
47483;SDS011;54076;50.322;18.650;2023-11-19T01:01:18;44.60;;;16.00;;
47483;SDS011;54076;50.322;18.650;2023-11-19T01:06:31;37.30;;;16.10;;
47483;SDS011;54076;50.322;18.650;2023-11-19T01:11:33;43.40;;;16.90;;
47483;SDS011;54076;50.322;18.650;2023-11-19T01:16:33;48.40;;;17.10;;
47483;SDS011;54076;50.322;18.650;2023-11-19T01:21:34;47.80;;;18.30;;
47483;SDS011;54076;50.322;18.650;2023-11-19T01:26:35;47.60;;;17.50;;
47483;SDS011;54076;50.322;18.650;2023-11-19T01:31:37;49.50;;;19.30;;
47483;SDS011;54076;50.322;18.650;2023-11-19T01:36:38;50.40;;;17.80;;
47483;SDS011;54076;50.322;18.650;2023-11-19T01:41:40;51.70;;;18.90;;
47483;SDS011;54076;50.322;18.650;2023-11-19T01:46:42;47.90;;;19.50;;
47483;SDS011;54076;50.322;18.650;2023-11-19T01:51:46;46.30;;;18.70;;
47483;SDS011;54076;50.322;18.650;2023-11-19T01:56:48;57.80;;;20.50;;
47483;SDS011;54076;50.322;18.650;2023-11-19T02:01:49;51.90;;;19.50;;
47483;SDS011;54076;50.322;18.650;2023-11-19T02:06:52;52.00;;;19.80;;
47483;SDS011;54076;50.322;18.650;2023-11-19T02:11:57;53.60;;;19.10;;
47483;SDS011;54076;50.322;18.650;2023-11-19T02:16:58;58.20;;;20.90;;
47483;SDS011;54076;50.322;18.650;2023-11-19T02:21:59;53.90;;;20.60;;
47483;SDS011;54076;50.322;18.650;2023-11-19T02:27:10;54.40;;;21.50;;
47483;SDS011;54076;50.322;18.650;2023-11-19T02:32:17;57.50;;;21.10;;
47483;SDS011;54076;50.322;18.650;2023-11-19T02:37:18;55.00;;;21.20;;
47483;SDS011;54076;50.322;18.650;2023-11-19T02:42:20;54.70;;;21.10;;
47483;SDS011;54076;50.322;18.650;2023-11-19T02:47:21;55.40;;;21.50;;
47483;SDS011;54076;50.322;18.650;2023-11-19T02:52:24;53.30;;;19.10;;
47483;SDS011;54076;50.322;18.650;2023-11-19T02:57:25;53.00;;;19.60;;
47483;SDS011;54076;50.322;18.650;2023-11-19T03:02:32;53.80;;;19.10;;
47483;SDS011;54076;50.322;18.650;2023-11-19T03:07:44;49.70;;;19.20;;
47483;SDS011;54076;50.322;18.650;2023-11-19T03:12:45;48.80;;;18.40;;
47483;SDS011;54076;50.322;18.650;2023-11-19T03:17:46;51.70;;;19.20;;
47483;SDS011;54076;50.322;18.650;2023-11-19T03:22:47;51.90;;;18.70;;
47483;SDS011;54076;50.322;18.650;2023-11-19T03:27:48;51.00;;;17.70;;
47483;SDS011;54076;50.322;18.650;2023-11-19T03:32:49;46.60;;;18.70;;
47483;SDS011;54076;50.322;18.650;2023-11-19T03:37:50;49.20;;;17.60;;
47483;SDS011;54076;50.322;18.650;2023-11-19T03:42:51;47.00;;;17.60;;
47483;SDS011;54076;50.322;18.650;2023-11-19T03:47:53;48.20;;;17.80;;
47483;SDS011;54076;50.322;18.650;2023-11-19T03:52:54;49.80;;;18.20;;
47483;SDS011;54076;50.322;18.650;2023-11-19T03:57:55;49.10;;;18.10;;
47483;SDS011;54076;50.322;18.650;2023-11-19T04:02:56;42.80;;;17.40;;
47483;SDS011;54076;50.322;18.650;2023-11-19T04:07:57;41.40;;;17.60;;
47483;SDS011;54076;50.322;18.650;2023-11-19T04:12:58;37.60;;;15.60;;
47483;SDS011;54076;50.322;18.650;2023-11-19T04:17:59;46.00;;;18.10;;
47483;SDS011;54076;50.322;18.650;2023-11-19T04:23:00;42.50;;;18.60;;
47483;SDS011;54076;50.322;18.650;2023-11-19T04:28:01;45.40;;;19.40;;
47483;SDS011;54076;50.322;18.650;2023-11-19T04:33:03;44.00;;;17.80;;
47483;SDS011;54076;50.322;18.650;2023-11-19T04:38:04;45.50;;;17.20;;
47483;SDS011;54076;50.322;18.650;2023-11-19T04:43:06;47.70;;;19.30;;
47483;SDS011;54076;50.322;18.650;2023-11-19T04:48:07;48.20;;;18.50;;
47483;SDS011;54076;50.322;18.650;2023-11-19T04:53:09;42.00;;;18.20;;
47483;SDS011;54076;50.322;18.650;2023-11-19T04:58:10;41.60;;;17.80;;
47483;SDS011;54076;50.322;18.650;2023-11-19T05:03:11;44.60;;;17.30;;
47483;SDS011;54076;50.322;18.650;2023-11-19T05:08:12;43.90;;;16.60;;
47483;SDS011;54076;50.322;18.650;2023-11-19T05:13:13;48.50;;;18.90;;
47483;SDS011;54076;50.322;18.650;2023-11-19T05:18:15;45.00;;;18.90;;
47483;SDS011;54076;50.322;18.650;2023-11-19T05:23:16;47.50;;;18.30;;
47483;SDS011;54076;50.322;18.650;2023-11-19T05:28:17;44.50;;;18.60;;
47483;SDS011;54076;50.322;18.650;2023-11-19T05:33:18;49.60;;;19.10;;
47483;SDS011;54076;50.322;18.650;2023-11-19T05:38:19;51.90;;;20.50;;
47483;SDS011;54076;50.322;18.650;2023-11-19T05:43:21;53.00;;;21.10;;
47483;SDS011;54076;50.322;18.650;2023-11-19T05:48:23;49.70;;;21.20;;
47483;SDS011;54076;50.322;18.650;2023-11-19T05:53:26;55.40;;;20.70;;
47483;SDS011;54076;50.322;18.650;2023-11-19T05:58:27;51.60;;;20.10;;
47483;SDS011;54076;50.322;18.650;2023-11-19T06:03:33;51.80;;;20.20;;
47483;SDS011;54076;50.322;18.650;2023-11-19T06:08:34;52.30;;;19.70;;
47483;SDS011;54076;50.322;18.650;2023-11-19T06:13:35;49.50;;;19.00;;
47483;SDS011;54076;50.322;18.650;2023-11-19T06:18:39;48.40;;;19.20;;
47483;SDS011;54076;50.322;18.650;2023-11-19T06:23:41;47.60;;;19.30;;
47483;SDS011;54076;50.322;18.650;2023-11-19T06:28:42;44.90;;;18.60;;
47483;SDS011;54076;50.322;18.650;2023-11-19T06:33:44;39.40;;;17.50;;
47483;SDS011;54076;50.322;18.650;2023-11-19T06:38:45;44.90;;;18.10;;
47483;SDS011;54076;50.322;18.650;2023-11-19T06:43:46;38.40;;;16.60;;
47483;SDS011;54076;50.322;18.650;2023-11-19T06:48:47;43.60;;;17.80;;
47483;SDS011;54076;50.322;18.650;2023-11-19T06:53:48;46.60;;;18.30;;
47483;SDS011;54076;50.322;18.650;2023-11-19T06:58:49;39.90;;;17.20;;
47483;SDS011;54076;50.322;18.650;2023-11-19T07:03:51;42.40;;;16.80;;
47483;SDS011;54076;50.322;18.650;2023-11-19T07:08:52;42.10;;;16.50;;
47483;SDS011;54076;50.322;18.650;2023-11-19T07:13:53;40.90;;;16.60;;
47483;SDS011;54076;50.322;18.650;2023-11-19T07:18:54;44.50;;;17.90;;
47483;SDS011;54076;50.322;18.650;2023-11-19T07:23:56;40.40;;;17.50;;
47483;SDS011;54076;50.322;18.650;2023-11-19T07:28:57;39.00;;;17.50;;
47483;SDS011;54076;50.322;18.650;2023-11-19T07:33:58;48.40;;;17.50;;
47483;SDS011;54076;50.322;18.650;2023-11-19T07:38:59;41.60;;;16.60;;
47483;SDS011;54076;50.322;18.650;2023-11-19T07:44:00;37.90;;;15.50;;
47483;SDS011;54076;50.322;18.650;2023-11-19T07:49:01;34.20;;;14.90;;
47483;SDS011;54076;50.322;18.650;2023-11-19T07:54:03;31.40;;;12.60;;
47483;SDS011;54076;50.322;18.650;2023-11-19T07:59:05;33.70;;;13.80;;
47483;SDS011;54076;50.322;18.650;2023-11-19T08:04:07;32.30;;;13.60;;
47483;SDS011;54076;50.322;18.650;2023-11-19T08:09:08;29.90;;;12.90;;
47483;SDS011;54076;50.322;18.650;2023-11-19T08:14:14;28.50;;;12.90;;
47483;SDS011;54076;50.322;18.650;2023-11-19T08:19:15;31.60;;;12.80;;
47483;SDS011;54076;50.322;18.650;2023-11-19T08:24:16;32.40;;;12.40;;
47483;SDS011;54076;50.322;18.650;2023-11-19T08:29:17;30.30;;;12.80;;
47483;SDS011;54076;50.322;18.650;2023-11-19T08:34:18;33.00;;;13.20;;
47483;SDS011;54076;50.322;18.650;2023-11-19T08:39:19;30.50;;;12.60;;
47483;SDS011;54076;50.322;18.650;2023-11-19T08:44:21;29.80;;;13.20;;
47483;SDS011;54076;50.322;18.650;2023-11-19T08:49:22;34.20;;;13.70;;
47483;SDS011;54076;50.322;18.650;2023-11-19T08:54:23;40.20;;;15.10;;
47483;SDS011;54076;50.322;18.650;2023-11-19T08:59:25;37.50;;;15.30;;
47483;SDS011;54076;50.322;18.650;2023-11-19T09:04:26;33.10;;;16.10;;
47483;SDS011;54076;50.322;18.650;2023-11-19T09:09:27;35.50;;;13.80;;
47483;SDS011;54076;50.322;18.650;2023-11-19T09:14:28;26.70;;;11.40;;
47483;SDS011;54076;50.322;18.650;2023-11-19T09:19:29;26.30;;;11.30;;
47483;SDS011;54076;50.322;18.650;2023-11-19T09:24:33;27.30;;;11.50;;
47483;SDS011;54076;50.322;18.650;2023-11-19T09:29:34;27.50;;;11.70;;
47483;SDS011;54076;50.322;18.650;2023-11-19T09:34:35;30.10;;;11.60;;
47483;SDS011;54076;50.322;18.650;2023-11-19T09:39:36;29.30;;;12.70;;
47483;SDS011;54076;50.322;18.650;2023-11-19T09:44:38;26.90;;;11.40;;
47483;SDS011;54076;50.322;18.650;2023-11-19T09:49:41;26.50;;;11.60;;
47483;SDS011;54076;50.322;18.650;2023-11-19T09:54:42;28.70;;;12.00;;
47483;SDS011;54076;50.322;18.650;2023-11-19T09:59:43;30.10;;;11.00;;
47483;SDS011;54076;50.322;18.650;2023-11-19T10:04:46;31.40;;;10.70;;
47483;SDS011;54076;50.322;18.650;2023-11-19T10:09:48;30.10;;;11.40;;
47483;SDS011;54076;50.322;18.650;2023-11-19T10:14:49;25.70;;;10.90;;
47483;SDS011;54076;50.322;18.650;2023-11-19T10:19:51;22.30;;;9.40;;
47483;SDS011;54076;50.322;18.650;2023-11-19T10:24:52;23.60;;;10.10;;
47483;SDS011;54076;50.322;18.650;2023-11-19T10:29:54;20.40;;;8.30;;
47483;SDS011;54076;50.322;18.650;2023-11-19T10:35:04;16.30;;;7.40;;
47483;SDS011;54076;50.322;18.650;2023-11-19T10:40:07;15.80;;;7.40;;
47483;SDS011;54076;50.322;18.650;2023-11-19T10:45:22;18.80;;;8.40;;
47483;SDS011;54076;50.322;18.650;2023-11-19T10:50:24;21.40;;;9.30;;
47483;SDS011;54076;50.322;18.650;2023-11-19T10:55:33;17.90;;;7.60;;
47483;SDS011;54076;50.322;18.650;2023-11-19T11:00:57;23.40;;;8.60;;
47483;SDS011;54076;50.322;18.650;2023-11-19T11:06:00;18.70;;;8.10;;
47483;SDS011;54076;50.322;18.650;2023-11-19T11:11:04;18.90;;;8.50;;
47483;SDS011;54076;50.322;18.650;2023-11-19T11:16:07;19.40;;;8.20;;
47483;SDS011;54076;50.322;18.650;2023-11-19T11:21:11;18.00;;;8.70;;
47483;SDS011;54076;50.322;18.650;2023-11-19T11:26:28;20.00;;;10.10;;
47483;SDS011;54076;50.322;18.650;2023-11-19T11:36:58;27.10;;;11.20;;
47483;SDS011;54076;50.322;18.650;2023-11-19T11:47:17;22.60;;;10.70;;
47483;SDS011;54076;50.322;18.650;2023-11-19T11:52:19;27.30;;;11.30;;
47483;SDS011;54076;50.322;18.650;2023-11-19T11:57:20;29.80;;;13.10;;
47483;SDS011;54076;50.322;18.650;2023-11-19T12:02:22;31.10;;;11.70;;
47483;SDS011;54076;50.322;18.650;2023-11-19T12:07:24;29.90;;;12.20;;
47483;SDS011;54076;50.322;18.650;2023-11-19T12:12:27;23.80;;;11.20;;
47483;SDS011;54076;50.322;18.650;2023-11-19T12:22:41;26.90;;;11.80;;
47483;SDS011;54076;50.322;18.650;2023-11-19T12:27:45;23.50;;;10.40;;
47483;SDS011;54076;50.322;18.650;2023-11-19T12:32:47;24.10;;;10.90;;
47483;SDS011;54076;50.322;18.650;2023-11-19T12:37:50;30.90;;;11.40;;
47483;SDS011;54076;50.322;18.650;2023-11-19T12:42:52;25.00;;;11.90;;
47483;SDS011;54076;50.322;18.650;2023-11-19T12:48:05;28.10;;;11.30;;
47483;SDS011;54076;50.322;18.650;2023-11-19T12:53:06;29.40;;;12.20;;
47483;SDS011;54076;50.322;18.650;2023-11-19T12:58:08;24.30;;;11.20;;
47483;SDS011;54076;50.322;18.650;2023-11-19T13:03:09;26.90;;;12.10;;
47483;SDS011;54076;50.322;18.650;2023-11-19T13:08:10;27.30;;;11.70;;
47483;SDS011;54076;50.322;18.650;2023-11-19T13:13:13;27.10;;;11.50;;
47483;SDS011;54076;50.322;18.650;2023-11-19T13:18:16;26.10;;;11.60;;
47483;SDS011;54076;50.322;18.650;2023-11-19T13:23:17;24.60;;;11.00;;
47483;SDS011;54076;50.322;18.650;2023-11-19T13:28:18;19.40;;;9.80;;
47483;SDS011;54076;50.322;18.650;2023-11-19T13:33:19;22.30;;;9.70;;
47483;SDS011;54076;50.322;18.650;2023-11-19T13:38:20;17.60;;;8.00;;
47483;SDS011;54076;50.322;18.650;2023-11-19T13:43:21;14.90;;;6.90;;
47483;SDS011;54076;50.322;18.650;2023-11-19T13:48:22;15.20;;;6.40;;
47483;SDS011;54076;50.322;18.650;2023-11-19T13:53:24;14.60;;;6.60;;
47483;SDS011;54076;50.322;18.650;2023-11-19T13:58:25;15.00;;;6.40;;
47483;SDS011;54076;50.322;18.650;2023-11-19T14:03:26;16.70;;;6.70;;
47483;SDS011;54076;50.322;18.650;2023-11-19T14:08:27;12.30;;;6.60;;
47483;SDS011;54076;50.322;18.650;2023-11-19T14:13:28;11.60;;;5.80;;
47483;SDS011;54076;50.322;18.650;2023-11-19T14:18:29;13.50;;;5.20;;
47483;SDS011;54076;50.322;18.650;2023-11-19T14:23:30;12.20;;;5.30;;
47483;SDS011;54076;50.322;18.650;2023-11-19T14:28:31;9.40;;;4.60;;
47483;SDS011;54076;50.322;18.650;2023-11-19T14:33:32;11.30;;;5.20;;
47483;SDS011;54076;50.322;18.650;2023-11-19T14:38:35;12.60;;;4.90;;
47483;SDS011;54076;50.322;18.650;2023-11-19T14:43:39;10.10;;;4.70;;
47483;SDS011;54076;50.322;18.650;2023-11-19T14:48:40;8.60;;;4.30;;
47483;SDS011;54076;50.322;18.650;2023-11-19T14:53:41;9.90;;;4.60;;
47483;SDS011;54076;50.322;18.650;2023-11-19T14:58:42;9.70;;;4.60;;
47483;SDS011;54076;50.322;18.650;2023-11-19T15:03:44;9.40;;;4.10;;
47483;SDS011;54076;50.322;18.650;2023-11-19T15:08:45;11.10;;;4.70;;
47483;SDS011;54076;50.322;18.650;2023-11-19T15:13:46;11.20;;;5.00;;
47483;SDS011;54076;50.322;18.650;2023-11-19T15:18:47;11.00;;;5.20;;
47483;SDS011;54076;50.322;18.650;2023-11-19T15:23:48;9.40;;;4.60;;
47483;SDS011;54076;50.322;18.650;2023-11-19T15:28:49;9.90;;;3.90;;
47483;SDS011;54076;50.322;18.650;2023-11-19T15:33:50;11.30;;;4.70;;
47483;SDS011;54076;50.322;18.650;2023-11-19T15:38:52;10.90;;;4.60;;
47483;SDS011;54076;50.322;18.650;2023-11-19T15:43:53;11.00;;;5.00;;
47483;SDS011;54076;50.322;18.650;2023-11-19T15:48:55;12.80;;;5.30;;
47483;SDS011;54076;50.322;18.650;2023-11-19T15:53:56;11.90;;;5.60;;
47483;SDS011;54076;50.322;18.650;2023-11-19T15:58:57;14.10;;;5.50;;
47483;SDS011;54076;50.322;18.650;2023-11-19T16:03:58;11.50;;;5.20;;
47483;SDS011;54076;50.322;18.650;2023-11-19T16:08:59;11.40;;;5.30;;
47483;SDS011;54076;50.322;18.650;2023-11-19T16:14:00;14.70;;;6.20;;
47483;SDS011;54076;50.322;18.650;2023-11-19T16:19:01;13.20;;;5.40;;
47483;SDS011;54076;50.322;18.650;2023-11-19T16:24:05;15.60;;;6.20;;
47483;SDS011;54076;50.322;18.650;2023-11-19T16:29:07;16.20;;;5.80;;
47483;SDS011;54076;50.322;18.650;2023-11-19T16:34:08;14.60;;;6.40;;
47483;SDS011;54076;50.322;18.650;2023-11-19T16:39:11;13.60;;;6.00;;
47483;SDS011;54076;50.322;18.650;2023-11-19T16:44:13;12.60;;;6.30;;
47483;SDS011;54076;50.322;18.650;2023-11-19T16:49:14;12.90;;;6.40;;
47483;SDS011;54076;50.322;18.650;2023-11-19T16:54:17;13.80;;;7.00;;
47483;SDS011;54076;50.322;18.650;2023-11-19T16:59:19;13.70;;;6.30;;
47483;SDS011;54076;50.322;18.650;2023-11-19T17:04:20;16.70;;;6.90;;
47483;SDS011;54076;50.322;18.650;2023-11-19T17:09:21;19.60;;;9.00;;
47483;SDS011;54076;50.322;18.650;2023-11-19T17:14:22;13.60;;;7.00;;
47483;SDS011;54076;50.322;18.650;2023-11-19T17:19:23;16.20;;;7.40;;
47483;SDS011;54076;50.322;18.650;2023-11-19T17:24:24;15.30;;;7.20;;
47483;SDS011;54076;50.322;18.650;2023-11-19T17:29:25;15.30;;;7.40;;
47483;SDS011;54076;50.322;18.650;2023-11-19T17:34:26;13.70;;;6.60;;
47483;SDS011;54076;50.322;18.650;2023-11-19T17:39:27;16.70;;;6.90;;
47483;SDS011;54076;50.322;18.650;2023-11-19T17:44:28;15.60;;;6.60;;
47483;SDS011;54076;50.322;18.650;2023-11-19T17:49:29;18.70;;;8.70;;
47483;SDS011;54076;50.322;18.650;2023-11-19T17:54:30;17.40;;;8.10;;
47483;SDS011;54076;50.322;18.650;2023-11-19T17:59:31;15.30;;;7.60;;
47483;SDS011;54076;50.322;18.650;2023-11-19T18:04:32;13.30;;;6.50;;
47483;SDS011;54076;50.322;18.650;2023-11-19T18:09:33;16.10;;;7.80;;
47483;SDS011;54076;50.322;18.650;2023-11-19T18:14:37;16.50;;;7.10;;
47483;SDS011;54076;50.322;18.650;2023-11-19T18:19:39;15.50;;;7.40;;
47483;SDS011;54076;50.322;18.650;2023-11-19T18:24:40;16.60;;;7.90;;
47483;SDS011;54076;50.322;18.650;2023-11-19T18:29:41;16.80;;;8.00;;
47483;SDS011;54076;50.322;18.650;2023-11-19T18:34:43;16.90;;;7.40;;
47483;SDS011;54076;50.322;18.650;2023-11-19T18:39:44;16.20;;;7.80;;
47483;SDS011;54076;50.322;18.650;2023-11-19T18:44:45;17.80;;;8.10;;
47483;SDS011;54076;50.322;18.650;2023-11-19T18:49:46;20.90;;;8.80;;
47483;SDS011;54076;50.322;18.650;2023-11-19T18:54:48;18.80;;;8.60;;
47483;SDS011;54076;50.322;18.650;2023-11-19T18:59:49;19.30;;;8.40;;
47483;SDS011;54076;50.322;18.650;2023-11-19T19:04:50;16.80;;;8.40;;
47483;SDS011;54076;50.322;18.650;2023-11-19T19:09:51;19.50;;;8.80;;
47483;SDS011;54076;50.322;18.650;2023-11-19T19:14:55;18.60;;;8.80;;
47483;SDS011;54076;50.322;18.650;2023-11-19T19:19:57;20.00;;;8.70;;
47483;SDS011;54076;50.322;18.650;2023-11-19T19:24:58;19.50;;;9.50;;
47483;SDS011;54076;50.322;18.650;2023-11-19T19:29:59;22.70;;;10.00;;
47483;SDS011;54076;50.322;18.650;2023-11-19T19:35:00;18.00;;;8.80;;
47483;SDS011;54076;50.322;18.650;2023-11-19T19:40:02;20.40;;;9.20;;
47483;SDS011;54076;50.322;18.650;2023-11-19T19:45:05;19.80;;;8.80;;
47483;SDS011;54076;50.322;18.650;2023-11-19T19:50:07;19.40;;;8.40;;
47483;SDS011;54076;50.322;18.650;2023-11-19T19:55:10;17.70;;;8.20;;
47483;SDS011;54076;50.322;18.650;2023-11-19T20:00:13;20.20;;;8.50;;
47483;SDS011;54076;50.322;18.650;2023-11-19T20:05:14;17.30;;;8.50;;
47483;SDS011;54076;50.322;18.650;2023-11-19T20:10:16;15.90;;;8.30;;
47483;SDS011;54076;50.322;18.650;2023-11-19T20:15:17;16.80;;;8.20;;
47483;SDS011;54076;50.322;18.650;2023-11-19T20:20:21;23.10;;;9.60;;
47483;SDS011;54076;50.322;18.650;2023-11-19T20:25:21;18.70;;;8.80;;
47483;SDS011;54076;50.322;18.650;2023-11-19T20:30:23;18.50;;;8.80;;
47483;SDS011;54076;50.322;18.650;2023-11-19T20:35:24;18.30;;;8.90;;
47483;SDS011;54076;50.322;18.650;2023-11-19T20:40:25;16.90;;;7.90;;
47483;SDS011;54076;50.322;18.650;2023-11-19T20:45:27;19.50;;;9.10;;
47483;SDS011;54076;50.322;18.650;2023-11-19T20:50:30;19.00;;;9.50;;
47483;SDS011;54076;50.322;18.650;2023-11-19T20:55:31;21.30;;;8.80;;
47483;SDS011;54076;50.322;18.650;2023-11-19T21:00:33;16.30;;;7.60;;
47483;SDS011;54076;50.322;18.650;2023-11-19T21:05:34;16.50;;;8.40;;
47483;SDS011;54076;50.322;18.650;2023-11-19T21:10:39;16.70;;;7.80;;
47483;SDS011;54076;50.322;18.650;2023-11-19T21:15:40;14.10;;;7.40;;
47483;SDS011;54076;50.322;18.650;2023-11-19T21:20:42;17.20;;;7.40;;
47483;SDS011;54076;50.322;18.650;2023-11-19T21:25:43;17.40;;;8.00;;
47483;SDS011;54076;50.322;18.650;2023-11-19T21:30:44;15.10;;;7.70;;
47483;SDS011;54076;50.322;18.650;2023-11-19T21:35:45;17.60;;;7.50;;
47483;SDS011;54076;50.322;18.650;2023-11-19T21:40:47;19.40;;;8.00;;
47483;SDS011;54076;50.322;18.650;2023-11-19T21:45:50;16.60;;;7.80;;
47483;SDS011;54076;50.322;18.650;2023-11-19T21:50:51;14.40;;;6.80;;
47483;SDS011;54076;50.322;18.650;2023-11-19T21:55:52;14.50;;;6.70;;
47483;SDS011;54076;50.322;18.650;2023-11-19T22:00:53;13.50;;;7.00;;
47483;SDS011;54076;50.322;18.650;2023-11-19T22:05:54;16.30;;;7.50;;
47483;SDS011;54076;50.322;18.650;2023-11-19T22:10:55;18.40;;;8.40;;
47483;SDS011;54076;50.322;18.650;2023-11-19T22:15:56;15.30;;;7.10;;
47483;SDS011;54076;50.322;18.650;2023-11-19T22:20:57;13.60;;;5.50;;
47483;SDS011;54076;50.322;18.650;2023-11-19T22:25:58;13.00;;;6.00;;
47483;SDS011;54076;50.322;18.650;2023-11-19T22:30:59;11.70;;;5.50;;
47483;SDS011;54076;50.322;18.650;2023-11-19T22:36:00;14.40;;;6.00;;
47483;SDS011;54076;50.322;18.650;2023-11-19T22:41:01;11.70;;;5.50;;
47483;SDS011;54076;50.322;18.650;2023-11-19T22:46:02;11.10;;;5.00;;
47483;SDS011;54076;50.322;18.650;2023-11-19T22:51:03;12.20;;;6.10;;
47483;SDS011;54076;50.322;18.650;2023-11-19T22:56:06;19.70;;;7.80;;
47483;SDS011;54076;50.322;18.650;2023-11-19T23:01:08;13.70;;;6.80;;
47483;SDS011;54076;50.322;18.650;2023-11-19T23:06:09;15.80;;;8.00;;
47483;SDS011;54076;50.322;18.650;2023-11-19T23:11:10;12.60;;;5.60;;
47483;SDS011;54076;50.322;18.650;2023-11-19T23:16:11;12.10;;;5.70;;
47483;SDS011;54076;50.322;18.650;2023-11-19T23:21:15;13.50;;;6.80;;
47483;SDS011;54076;50.322;18.650;2023-11-19T23:26:18;15.20;;;6.50;;
47483;SDS011;54076;50.322;18.650;2023-11-19T23:31:19;14.50;;;6.70;;
47483;SDS011;54076;50.322;18.650;2023-11-19T23:36:20;21.00;;;8.10;;
47483;SDS011;54076;50.322;18.650;2023-11-19T23:41:21;16.10;;;7.80;;
47483;SDS011;54076;50.322;18.650;2023-11-19T23:46:23;13.20;;;6.40;;
47483;SDS011;54076;50.322;18.650;2023-11-19T23:51:25;14.20;;;6.40;;
47483;SDS011;54076;50.322;18.650;2023-11-19T23:56:26;12.60;;;5.90;;
